Home > Products > Valid Products > TAF

000
FTUS42 KGSP 301728
TAFGSP
TAF
KGSP 301728Z 3018/3118 33010G19KT P6SM FEW250
     FM310000 35007KT P6SM SKC
     FM310500 35003KT P6SM SKC
     FM311500 28003KT P6SM FEW220=



000
FTUS42 KGSP 301728
TAFAVL
TAF
KAVL 301728Z 3018/3118 34023G32KT P6SM FEW035
     FM310000 34013G21KT P6SM FEW040
     FM310300 33009KT P6SM FEW040
     FM311100 33005KT P6SM FEW250=



000
FTUS42 KGSP 301728
TAFCLT
TAF
KCLT 301728Z 3018/3118 32015G25KT P6SM FEW050
     FM302200 33008KT P6SM SKC
     FM310300 30004KT P6SM SKC
     FM311400 25005KT P6SM FEW250=



000
FTUS42 KGSP 301126
TAFAVL
TAF
KAVL 301126Z 3012/3112 34016G27KT P6SM FEW022 BKN035
      TEMPO 3012/3014 OVC022
     FM301600 34017G30KT P6SM SCT035
     FM302300 34012KT P6SM FEW040
     FM310300 32007KT P6SM FEW250=



000
FTUS42 KGSP 301126
TAFGSP
TAF
KGSP 301126Z 3012/3112 34010G21KT P6SM SKC
     FM310000 34004KT P6SM SKC=



000
FTUS42 KGSP 301126
TAFAVL
TAF
KAVL 301126Z 3012/3112 34016G27KT P6SM FEW022 BKN035
      TEMPO 3012/3014 OVC022
     FM301600 34017G30KT P6SM SCT035
     FM302300 34012KT P6SM FEW040
     FM310300 32007KT P6SM FEW250=



000
FTUS42 KGSP 301126
TAFCLT
TAF
KCLT 301126Z 3012/3112 33013G26KT P6SM SKC
     FM310000 32004KT P6SM SKC=



000
FTUS42 KGSP 301126
TAFCLT
TAF
KCLT 301126Z 3012/3112 33013G26KT P6SM SKC
     FM310000 32004KT P6SM SKC=



000
FTUS42 KGSP 300848 AAA
TAFCLT
TAF AMD
KCLT 300848Z 3009/3106 31008KT P6SM BKN080
     FM301300 32012G25KT P6SM FEW050
     FM310000 33004KT P6SM SKC=



000
FTUS42 KGSP 300848 AAA
TAFCLT
TAF AMD
KCLT 300848Z 3009/3106 31008KT P6SM BKN080
     FM301300 32012G25KT P6SM FEW050
     FM310000 33004KT P6SM SKC=



000
FTUS42 KGSP 300842 AAB
TAFAVL
TAF AMD
KAVL 300842Z 3009/3106 34016G25KT P6SM FEW015 OVC025
     FM301400 33014G29KT P6SM BKN040
     FM310100 34009KT P6SM FEW250=



000
FTUS42 KGSP 300842 AAB
TAFAVL
TAF AMD
KAVL 300842Z 3009/3106 34016G25KT P6SM FEW015 OVC025
     FM301400 33014G29KT P6SM BKN040
     FM310100 34009KT P6SM FEW250=



000
FTUS42 KGSP 300647 AAA
TAFAVL
TAF AMD
KAVL 300647Z 3007/3106 34016G25KT P6SM FEW025 OVC035
     FM301100 33014G29KT P6SM SCT035
     FM310100 34009KT P6SM FEW250=



000
FTUS42 KGSP 300647 AAA
TAFAVL
TAF AMD
KAVL 300647Z 3007/3106 34016G25KT P6SM FEW025 OVC035
     FM301100 33014G29KT P6SM SCT035
     FM310100 34009KT P6SM FEW250=



000
FTUS42 KGSP 300539
TAFGSP
TAF
KGSP 300539Z 3006/3106 21006KT P6SM SCT060 BKN080
     FM300800 33006KT P6SM BKN060
     FM301300 34009G16KT P6SM SCT250
     FM302300 35005KT P6SM SKC=



000
FTUS42 KGSP 300539
TAFAVL
TAF
KAVL 300539Z 3006/3106 34010KT P6SM OVC040
     FM300800 34014G24KT P6SM SCT025 OVC035
     FM301100 33016G27KT P6SM SCT035
     FM310100 34009KT P6SM FEW250=



000
FTUS42 KGSP 300539
TAFCLT
TAF
KCLT 300539Z 3006/3106 22007KT P6SM BKN070
     FM300800 28008KT P6SM SCT050 BKN080
     FM301000 32008KT P6SM BKN080
     FM301300 32012G21KT P6SM SKC
     FM310000 33004KT P6SM SKC=



000
FTUS42 KGSP 300539
TAFCLT
TAF
KCLT 300539Z 3006/3106 22007KT P6SM BKN070
     FM300800 28008KT P6SM SCT050 BKN080
     FM301000 32008KT P6SM BKN080
     FM301300 32012G21KT P6SM SKC
     FM310000 33004KT P6SM SKC=



000
FTUS42 KGSP 292339
TAFCLT
TAF
KCLT 292339Z 3000/3024 20007KT P6SM SCT090 BKN250
     FM300500 24007KT P6SM BKN050
     FM300800 30007KT P6SM FEW040
     FM301600 33012G22KT P6SM FEW250=



000
FTUS42 KGSP 292339
TAFGSP
TAF
KGSP 292339Z 3000/3024 22006KT P6SM BKN080
     FM300500 26006KT P6SM BKN050
     FM300800 31008KT P6SM SCT250
     FM301700 33012G20KT P6SM FEW250
     FM302300 34008KT P6SM SKC=



000
FTUS42 KGSP 292339
TAFAVL
TAF
KAVL 292339Z 3000/3024 20007KT P6SM BKN120
     FM300200 22004KT P6SM BKN050
     FM300400 31009KT P6SM BKN035
     FM300700 33013G21KT P6SM BKN025
     FM301200 34017G27KT P6SM SCT250=



000
FTUS42 KGSP 292339
TAFCLT
TAF
KCLT 292339Z 3000/3024 20007KT P6SM SCT090 BKN250
     FM300500 24007KT P6SM BKN050
     FM300800 30007KT P6SM FEW040
     FM301600 33012G22KT P6SM FEW250=



000
FTUS42 KGSP 292339
TAFAVL
TAF
KAVL 292339Z 3000/3024 20007KT P6SM BKN120
     FM300200 22004KT P6SM BKN050
     FM300400 31009KT P6SM BKN035
     FM300700 33013G21KT P6SM BKN025
     FM301200 34017G27KT P6SM SCT250=



000
FTUS42 KGSP 292101 AAA
TAFCLT
TAF AMD
KCLT 292101Z 2921/3018 20010KT P6SM BKN110 BKN250
     FM300200 24007KT P6SM BKN050
     FM300800 30007KT P6SM SCT150
     FM301500 33012G22KT P6SM FEW250=



000
FTUS42 KGSP 292101 AAA
TAFCLT
TAF AMD
KCLT 292101Z 2921/3018 20010KT P6SM BKN110 BKN250
     FM300200 24007KT P6SM BKN050
     FM300800 30007KT P6SM SCT150
     FM301500 33012G22KT P6SM FEW250=



000
FTUS42 KGSP 291720
TAFAVL
TAF
KAVL 291720Z 2918/3018 19008KT P6SM BKN180
     FM300000 20004KT P6SM BKN080
     FM300400 33009KT P6SM BKN040
     FM300700 32013G21KT P6SM BKN025
     FM301300 32017G30KT P6SM BKN029=



000
FTUS42 KGSP 291720
TAFCLT
TAF
KCLT 291720Z 2918/3018 20010G17KT P6SM BKN200
     FM300000 20009KT P6SM BKN120
     FM300500 24007KT P6SM BKN080
     FM300800 30007KT P6SM SCT150
     FM301500 33012G22KT P6SM FEW250=



000
FTUS42 KGSP 291720
TAFGSP
TAF
KGSP 291720Z 2918/3018 21010G17KT P6SM BKN200
     FM300000 22006KT P6SM BKN180
     FM300500 26006KT P6SM BKN080
     FM300800 31008KT P6SM SCT220
     FM301500 33012G20KT P6SM FEW250=



000
FTUS42 KGSP 291453 AAA
TAFCLT
TAF AMD
KCLT 291453Z 2915/3012 18003KT P6SM BKN250
     FM291600 20010G17KT P6SM SCT110 BKN200
     FM300600 24007KT P6SM SCT060 BKN110
     FM300800 29007KT P6SM SCT250=



000
FTUS42 KGSP 291453 AAA
TAFCLT
TAF AMD
KCLT 291453Z 2915/3012 18003KT P6SM BKN250
     FM291600 20010G17KT P6SM SCT110 BKN200
     FM300600 24007KT P6SM SCT060 BKN110
     FM300800 29007KT P6SM SCT250=



000
FTUS42 KGSP 291120
TAFCLT
TAF
KCLT 291120Z 2912/3012 18003KT P6SM SCT250
     FM291600 20010G17KT P6SM SCT110 BKN250
     FM300600 24007G15KT P6SM SCT060 BKN110
     FM300800 29007G15KT P6SM SCT250=



000
FTUS42 KGSP 291120
TAFAVL
TAF
KAVL 291120Z 2912/3012 18003KT P6SM SCT250
     FM291600 18006G14KT P6SM SCT050 BKN230
     FM300200 22005G13KT P6SM BKN050
     FM300500 32010G17KT P6SM BKN050
     FM300700 33013G21KT P6SM BKN025=



000
FTUS42 KGSP 291120
TAFCLT
TAF
KCLT 291120Z 2912/3012 18003KT P6SM SCT250
     FM291600 20010G17KT P6SM SCT110 BKN250
     FM300600 24007G15KT P6SM SCT060 BKN110
     FM300800 29007G15KT P6SM SCT250=



000
FTUS42 KGSP 291120
TAFAVL
TAF
KAVL 291120Z 2912/3012 18003KT P6SM SCT250
     FM291600 18006G14KT P6SM SCT050 BKN230
     FM300200 22005G13KT P6SM BKN050
     FM300500 32010G17KT P6SM BKN050
     FM300700 33013G21KT P6SM BKN025=



000
FTUS42 KGSP 291120
TAFGSP
TAF
KGSP 291120Z 2912/3012 19005KT P6SM SCT250
     FM291500 22006G14KT P6SM BKN250
     FM291800 22010G17KT P6SM SCT110 BKN250
     FM300100 22006G14KT P6SM SCT060 BKN110
     FM300600 26006G14KT P6SM SCT060 BKN110
     FM300800 31008G16KT P6SM FEW060 SCT110 BKN250=



000
FTUS42 KGSP 290911 AAA
TAFCLT
TAF AMD
KCLT 290911Z 2909/3006 12003KT P6SM FEW250
     FM291500 19006G14KT P6SM SCT220
     FM291800 20010G17KT P6SM BKN220
     FM300300 21007G15KT P6SM BKN060=



000
FTUS42 KGSP 290911 AAA
TAFCLT
TAF AMD
KCLT 290911Z 2909/3006 12003KT P6SM FEW250
     FM291500 19006G14KT P6SM SCT220
     FM291800 20010G17KT P6SM BKN220
     FM300300 21007G15KT P6SM BKN060=



000
FTUS42 KGSP 290520
TAFCLT
TAF
KCLT 290520Z 2906/3006 12003KT P6SM FEW210
     FM291500 19006G14KT P6SM SCT220
     FM291800 20010G17KT P6SM BKN220
     FM300300 21007G15KT P6SM BKN060=



000
FTUS42 KGSP 290520
TAFGSP
TAF
KGSP 290520Z 2906/3006 18003KT P6SM FEW220
     FM291400 21006G14KT P6SM SCT220
     FM291800 21010G17KT P6SM BKN220
     FM300200 22006G14KT P6SM BKN060=



000
FTUS42 KGSP 290520
TAFAVL
TAF
KAVL 290520Z 2906/3006 15003KT P6SM FEW190
     FM291600 19008G16KT P6SM BKN210
     FM300200 20005G14KT P6SM BKN050
     FM300400 32010G17KT P6SM BKN060=



000
FTUS42 KGSP 290520
TAFAVL
TAF
KAVL 290520Z 2906/3006 15003KT P6SM FEW190
     FM291600 19008G16KT P6SM BKN210
     FM300200 20005G14KT P6SM BKN050
     FM300400 32010G17KT P6SM BKN060=



000
FTUS42 KGSP 282320
TAFAVL
TAF
KAVL 282320Z 2900/2924 34006KT P6SM FEW250
     FM290300 16003KT P6SM SCT250
     FM291400 18007KT P6SM SCT140
     FM291700 18009KT P6SM BKN110
     FM292300 22006KT P6SM BKN060=



000
FTUS42 KGSP 282320
TAFCLT
TAF
KCLT 282320Z 2900/2924 17003KT P6SM FEW250
     FM291500 19006KT P6SM BKN150
     FM292000 20010KT P6SM BKN110=



000
FTUS42 KGSP 282320
TAFAVL
TAF
KAVL 282320Z 2900/2924 34006KT P6SM FEW250
     FM290300 16003KT P6SM SCT250
     FM291400 18007KT P6SM SCT140
     FM291700 18009KT P6SM BKN110
     FM292300 22006KT P6SM BKN060=



000
FTUS42 KGSP 282320
TAFGSP
TAF
KGSP 282320Z 2900/2924 00000KT P6SM FEW250
     FM291400 21006KT P6SM SCT180
     FM291900 21010KT P6SM BKN130=



000
FTUS42 KGSP 282320
TAFCLT
TAF
KCLT 282320Z 2900/2924 17003KT P6SM FEW250
     FM291500 19006KT P6SM BKN150
     FM292000 20010KT P6SM BKN110=



000
FTUS42 KGSP 282103 AAA
TAFCLT
TAF AMD
KCLT 282103Z 2821/2918 33005KT P6SM SKC
     FM290000 16003KT P6SM FEW250
     FM291300 18004KT P6SM SCT160
     FM291600 19008KT P6SM BKN140=



000
FTUS42 KGSP 282103 AAA
TAFCLT
TAF AMD
KCLT 282103Z 2821/2918 33005KT P6SM SKC
     FM290000 16003KT P6SM FEW250
     FM291300 18004KT P6SM SCT160
     FM291600 19008KT P6SM BKN140=



000
FTUS42 KGSP 281946 AAA
TAFAVL
TAF AMD
KAVL 281946Z 2820/2918 01008KT P6SM SKC
     FM290200 18003KT P6SM FEW250
     FM290400 00000KT P6SM FEW250
     FM291600 18007KT P6SM BKN140=



000
FTUS42 KGSP 281946 AAA
TAFAVL
TAF AMD
KAVL 281946Z 2820/2918 01008KT P6SM SKC
     FM290200 18003KT P6SM FEW250
     FM290400 00000KT P6SM FEW250
     FM291600 18007KT P6SM BKN140=



000
FTUS42 KGSP 281729
TAFGSP
TAF
KGSP 281729Z 2818/2918 VRB04KT P6SM SKC
     FM282000 24004KT P6SM SKC
     FM282300 18004KT P6SM SKC
     FM290400 00000KT P6SM FEW250
     FM291400 21007KT P6SM SCT160=



000
FTUS42 KGSP 281729
TAFAVL
TAF
KAVL 281729Z 2818/2918 35012G22KT P6SM FEW250
     FM282100 36008KT P6SM SKC
     FM290200 18003KT P6SM FEW250
     FM290400 00000KT P6SM FEW250
     FM291600 18007KT P6SM BKN140=



000
FTUS42 KGSP 281729
TAFCLT
TAF
KCLT 281729Z 2818/2918 35005KT P6SM SKC
     FM290000 16003KT P6SM FEW160
     FM291300 18004KT P6SM SCT160
     FM291600 19008KT P6SM BKN140=



000
FTUS42 KGSP 281729
TAFAVL
TAF
KAVL 281729Z 2818/2918 35012G22KT P6SM FEW250
     FM282100 36008KT P6SM SKC
     FM290200 18003KT P6SM FEW250
     FM290400 00000KT P6SM FEW250
     FM291600 18007KT P6SM BKN140=



000
FTUS42 KGSP 281729
TAFCLT
TAF
KCLT 281729Z 2818/2918 35005KT P6SM SKC
     FM290000 16003KT P6SM FEW160
     FM291300 18004KT P6SM SCT160
     FM291600 19008KT P6SM BKN140=



000
FTUS42 KGSP 281457 AAA
TAFCLT
TAF AMD
KCLT 281457Z 2815/2912 34006KT P6SM SKC
     FM290000 15003KT P6SM FEW250=



000
FTUS42 KGSP 281120
TAFGSP
TAF
KGSP 281120Z 2812/2912 34006KT P6SM SKC
      TEMPO 2812/2814 34010G17KT
     FM290000 18003KT P6SM FEW250
     FM290700 20003KT P6SM SCT240=



000
FTUS42 KGSP 281120
TAFCLT
TAF
KCLT 281120Z 2812/2912 35005KT P6SM SKC
      TEMPO 2812/2814 35010G17KT
     FM290000 15003KT P6SM FEW250=



000
FTUS42 KGSP 281120 CCA
TAFCLT
TAF COR
KCLT 281120Z 2812/2912 35005KT P6SM SKC
      TEMPO 2812/2814 35010G17KT
     FM290000 15003KT P6SM FEW250
     FM290700 19003KT P6SM SCT250=



000
FTUS42 KGSP 281120
TAFAVL
TAF
KAVL 281120Z 2812/2912 35012G22KT P6SM SKC
     FM281700 34006KT P6SM SKC
     FM282300 15003KT P6SM FEW240
     FM290700 17005KT P6SM SCT250=



000
FTUS42 KGSP 281120
TAFAVL
TAF
KAVL 281120Z 2812/2912 35012G22KT P6SM SKC
     FM281700 34006KT P6SM SKC
     FM282300 15003KT P6SM FEW240
     FM290700 17005KT P6SM SCT250=



000
FTUS42 KGSP 280857 AAA
TAFCLT
TAF AMD
KCLT 280857Z 2809/2906 36005KT P6SM SKC
     FM290000 14003KT P6SM FEW250=



000
FTUS42 KGSP 280857 AAA
TAFCLT
TAF AMD
KCLT 280857Z 2809/2906 36005KT P6SM SKC
     FM290000 14003KT P6SM FEW250=



000
FTUS42 KGSP 280857 AAA
TAFCLT
TAF AMD
KCLT 280857Z 2809/2906 36005KT P6SM SKC
     FM290000 14003KT P6SM FEW250=



000
FTUS42 KGSP 280639 AAA
TAFGSP
TAF AMD
KGSP 280639Z 2807/2906 30006KT P6SM SKC
     FM281800 02003KT P6SM SKC
     FM290000 18003KT P6SM FEW250=



000
FTUS42 KGSP 280639 AAA
TAFGSP
TAF AMD
KGSP 280639Z 2807/2906 30006KT P6SM SKC
     FM281800 02003KT P6SM SKC
     FM290000 18003KT P6SM FEW250=



000
FTUS42 KGSP 280520
TAFAVL
TAF
KAVL 280520Z 2806/2906 34022G30KT P6SM FEW060
     FM281200 32008KT P6SM SKC
     FM282000 32003KT P6SM SKC
     FM282300 18003KT P6SM SCT250=



000
FTUS42 KGSP 280520
TAFCLT
TAF
KCLT 280520Z 2806/2906 34005KT P6SM SKC
     FM290000 14003KT P6SM FEW250=



000
FTUS42 KGSP 280520
TAFGSP
TAF
KGSP 280520Z 2806/2906 32007G16KT P6SM SKC
     FM281800 02003KT P6SM SKC
     FM290000 18003KT P6SM FEW250=



000
FTUS42 KGSP 280520
TAFCLT
TAF
KCLT 280520Z 2806/2906 34005KT P6SM SKC
     FM290000 14003KT P6SM FEW250=



000
FTUS42 KGSP 280412 AAB
TAFAVL
TAF AMD
KAVL 280412Z 2804/2824 33014G26KT P6SM BKN022 OVC035
      TEMPO 2804/2806 25020G31KT SCT035
     FM280600 35010G19KT P6SM SCT030
     FM281000 34012KT P6SM FEW040
     FM281400 34008KT P6SM FEW040=



000
FTUS42 KGSP 280412 AAB
TAFAVL
TAF AMD
KAVL 280412Z 2804/2824 33014G26KT P6SM BKN022 OVC035
      TEMPO 2804/2806 25020G31KT SCT035
     FM280600 35010G19KT P6SM SCT030
     FM281000 34012KT P6SM FEW040
     FM281400 34008KT P6SM FEW040=



000
FTUS42 KGSP 280231 AAA
TAFAVL
TAF AMD
KAVL 280231Z 2803/2824 33014G26KT P6SM BKN022 OVC035
     FM280500 35010G19KT P6SM SCT030
     FM281000 34012KT P6SM FEW040
     FM281400 34008KT P6SM FEW040=



000
FTUS42 KGSP 280231 AAA
TAFAVL
TAF AMD
KAVL 280231Z 2803/2824 33014G26KT P6SM BKN022 OVC035
     FM280500 35010G19KT P6SM SCT030
     FM281000 34012KT P6SM FEW040
     FM281400 34008KT P6SM FEW040=



000
FTUS42 KGSP 280231 AAA
TAFAVL
TAF AMD
KAVL 280231Z 2803/2824 33014G26KT P6SM BKN022 OVC035
     FM280500 35010G19KT P6SM SCT030
     FM281000 34012KT P6SM FEW040
     FM281400 34008KT P6SM FEW040=



000
FTUS42 KGSP 280231 AAA
TAFAVL
TAF AMD
KAVL 280231Z 2803/2824 33014G26KT P6SM BKN022 OVC035
     FM280500 35010G19KT P6SM SCT030
     FM281000 34012KT P6SM FEW040
     FM281400 34008KT P6SM FEW040=



000
FTUS42 KGSP 272328
TAFCLT
TAF
KCLT 272328Z 2800/2824 32009KT P6SM FEW080
     FM280300 35004KT P6SM SKC
     FM281700 33005KT P6SM SKC=



000
FTUS42 KGSP 272328
TAFAVL
TAF
KAVL 272328Z 2800/2824 33012G20KT P6SM SCT030
      TEMPO 2800/2803 OVC028
     FM281000 34012KT P6SM FEW040
     FM281400 34008KT P6SM FEW040=



000
FTUS42 KGSP 272328
TAFGSP
TAF
KGSP 272328Z 2800/2824 35007G15KT P6SM SKC
     FM280800 35003KT P6SM SKC
     FM281500 06004KT P6SM SKC
     FM282200 12003KT P6SM SKC=



000
FTUS42 KGSP 272328
TAFAVL
TAF
KAVL 272328Z 2800/2824 33012G20KT P6SM SCT030
      TEMPO 2800/2803 OVC028
     FM281000 34012KT P6SM FEW040
     FM281400 34008KT P6SM FEW040=



000
FTUS42 KGSP 272328
TAFCLT
TAF
KCLT 272328Z 2800/2824 32009KT P6SM FEW080
     FM280300 35004KT P6SM SKC
     FM281700 33005KT P6SM SKC=



000
FTUS42 KGSP 272056 AAC
TAFCLT
TAF AMD
KCLT 272056Z 2721/2818 33011G20KT P6SM FEW070
     FM280200 33005KT P6SM SKC=



000
FTUS42 KGSP 272056 AAC
TAFCLT
TAF AMD
KCLT 272056Z 2721/2818 33011G20KT P6SM FEW070
     FM280200 33005KT P6SM SKC=



    US Dept of Commerce
    National Oceanic and Atmospheric Administration
    National Weather Service
    1325 East West Highway
    Silver Spring, MD 20910
    Page Author: NWS Internet Services Team
Disclaimer
Information Quality
Credits
Glossary
Privacy Policy
Freedom of Information Act (FOIA)
About Us
Career Opportunities